sensor_id;sensor_type;location;lat;lon;timestamp;temperature;humidity
79489;SHT31;68949;53.176;18.088;2023-12-20T00:00:42;6.74;92.11
79489;SHT31;68949;53.176;18.088;2023-12-20T00:03:29;6.76;92.11
79489;SHT31;68949;53.176;18.088;2023-12-20T00:05:56;6.77;92.10
79489;SHT31;68949;53.176;18.088;2023-12-20T00:08:24;6.76;92.10
79489;SHT31;68949;53.176;18.088;2023-12-20T00:10:51;6.76;92.13
79489;SHT31;68949;53.176;18.088;2023-12-20T00:13:21;6.76;92.11
79489;SHT31;68949;53.176;18.088;2023-12-20T00:15:47;6.77;92.10
79489;SHT31;68949;53.176;18.088;2023-12-20T00:18:14;6.78;92.19
79489;SHT31;68949;53.176;18.088;2023-12-20T00:20:48;6.78;92.15
79489;SHT31;68949;53.176;18.088;2023-12-20T00:23:19;6.80;92.14
79489;SHT31;68949;53.176;18.088;2023-12-20T00:25:46;6.81;92.12
79489;SHT31;68949;53.176;18.088;2023-12-20T00:28:13;6.83;92.09
79489;SHT31;68949;53.176;18.088;2023-12-20T00:30:40;6.82;92.05
79489;SHT31;68949;53.176;18.088;2023-12-20T00:33:08;6.81;92.13
79489;SHT31;68949;53.176;18.088;2023-12-20T00:35:35;6.84;92.06
79489;SHT31;68949;53.176;18.088;2023-12-20T00:38:02;6.82;92.06
79489;SHT31;68949;53.176;18.088;2023-12-20T00:40:31;6.83;92.09
79489;SHT31;68949;53.176;18.088;2023-12-20T00:42:58;6.82;92.10
79489;SHT31;68949;53.176;18.088;2023-12-20T00:45:24;6.82;92.16
79489;SHT31;68949;53.176;18.088;2023-12-20T00:47:51;6.85;92.17
79489;SHT31;68949;53.176;18.088;2023-12-20T00:50:18;6.87;92.10
79489;SHT31;68949;53.176;18.088;2023-12-20T00:52:44;6.88;92.08
79489;SHT31;68949;53.176;18.088;2023-12-20T00:55:12;6.88;92.08
79489;SHT31;68949;53.176;18.088;2023-12-20T00:57:39;6.90;92.02
79489;SHT31;68949;53.176;18.088;2023-12-20T01:00:06;6.90;92.01
79489;SHT31;68949;53.176;18.088;2023-12-20T01:02:36;6.91;92.03
79489;SHT31;68949;53.176;18.088;2023-12-20T01:05:03;6.95;92.00
79489;SHT31;68949;53.176;18.088;2023-12-20T01:07:30;6.93;91.96
79489;SHT31;68949;53.176;18.088;2023-12-20T01:09:56;6.92;91.95
79489;SHT31;68949;53.176;18.088;2023-12-20T01:12:25;6.90;91.99
79489;SHT31;68949;53.176;18.088;2023-12-20T01:14:52;6.90;92.04
79489;SHT31;68949;53.176;18.088;2023-12-20T01:17:18;6.92;92.09
79489;SHT31;68949;53.176;18.088;2023-12-20T01:19:47;6.92;92.04
79489;SHT31;68949;53.176;18.088;2023-12-20T01:22:19;6.90;92.10
79489;SHT31;68949;53.176;18.088;2023-12-20T01:24:46;6.90;92.09
79489;SHT31;68949;53.176;18.088;2023-12-20T01:27:12;6.92;92.08
79489;SHT31;68949;53.176;18.088;2023-12-20T01:29:39;6.91;92.03
79489;SHT31;68949;53.176;18.088;2023-12-20T01:32:06;6.91;92.10
79489;SHT31;68949;53.176;18.088;2023-12-20T01:34:33;6.93;92.11
79489;SHT31;68949;53.176;18.088;2023-12-20T01:37:02;6.92;92.07
79489;SHT31;68949;53.176;18.088;2023-12-20T01:39:30;6.89;92.09
79489;SHT31;68949;53.176;18.088;2023-12-20T01:41:57;6.90;92.16
79489;SHT31;68949;53.176;18.088;2023-12-20T01:44:24;6.92;92.14
79489;SHT31;68949;53.176;18.088;2023-12-20T01:46:51;6.93;92.17
79489;SHT31;68949;53.176;18.088;2023-12-20T01:49:21;6.96;92.12
79489;SHT31;68949;53.176;18.088;2023-12-20T01:51:49;6.98;92.09
79489;SHT31;68949;53.176;18.088;2023-12-20T01:54:19;6.95;92.03
79489;SHT31;68949;53.176;18.088;2023-12-20T01:56:48;6.95;92.08
79489;SHT31;68949;53.176;18.088;2023-12-20T01:59:17;6.94;92.10
79489;SHT31;68949;53.176;18.088;2023-12-20T02:01:47;6.95;92.11
79489;SHT31;68949;53.176;18.088;2023-12-20T02:04:13;6.95;92.15
79489;SHT31;68949;53.176;18.088;2023-12-20T02:06:44;6.94;92.11
79489;SHT31;68949;53.176;18.088;2023-12-20T02:09:13;6.95;92.14
79489;SHT31;68949;53.176;18.088;2023-12-20T02:11:41;6.95;92.20
79489;SHT31;68949;53.176;18.088;2023-12-20T02:14:11;6.97;92.15
79489;SHT31;68949;53.176;18.088;2023-12-20T02:16:38;6.94;92.11
79489;SHT31;68949;53.176;18.088;2023-12-20T02:19:05;6.93;92.19
79489;SHT31;68949;53.176;18.088;2023-12-20T02:21:40;6.95;92.26
79489;SHT31;68949;53.176;18.088;2023-12-20T02:24:09;6.97;92.23
79489;SHT31;68949;53.176;18.088;2023-12-20T02:26:35;6.98;92.21
79489;SHT31;68949;53.176;18.088;2023-12-20T02:29:02;6.99;92.20
79489;SHT31;68949;53.176;18.088;2023-12-20T02:31:29;6.97;92.20
79489;SHT31;68949;53.176;18.088;2023-12-20T02:33:56;6.96;92.22
79489;SHT31;68949;53.176;18.088;2023-12-20T02:36:23;6.96;92.28
79489;SHT31;68949;53.176;18.088;2023-12-20T02:38:49;6.95;92.23
79489;SHT31;68949;53.176;18.088;2023-12-20T02:41:17;6.93;92.27
79489;SHT31;68949;53.176;18.088;2023-12-20T02:43:44;6.93;92.32
79489;SHT31;68949;53.176;18.088;2023-12-20T02:46:13;6.93;92.30
79489;SHT31;68949;53.176;18.088;2023-12-20T02:48:43;6.93;92.35
79489;SHT31;68949;53.176;18.088;2023-12-20T02:51:09;6.95;92.35
79489;SHT31;68949;53.176;18.088;2023-12-20T02:53:36;6.96;92.34
79489;SHT31;68949;53.176;18.088;2023-12-20T02:56:03;6.95;92.26
79489;SHT31;68949;53.176;18.088;2023-12-20T02:58:31;6.93;92.30
79489;SHT31;68949;53.176;18.088;2023-12-20T03:00:57;6.92;92.38
79489;SHT31;68949;53.176;18.088;2023-12-20T03:03:24;6.94;92.39
79489;SHT31;68949;53.176;18.088;2023-12-20T03:05:51;6.95;92.38
79489;SHT31;68949;53.176;18.088;2023-12-20T03:08:19;6.95;92.32
79489;SHT31;68949;53.176;18.088;2023-12-20T03:10:46;6.96;92.37
79489;SHT31;68949;53.176;18.088;2023-12-20T03:13:13;6.96;92.29
79489;SHT31;68949;53.176;18.088;2023-12-20T03:15:40;6.94;92.32
79489;SHT31;68949;53.176;18.088;2023-12-20T03:18:06;6.91;92.35
79489;SHT31;68949;53.176;18.088;2023-12-20T03:20:33;6.91;92.36
79489;SHT31;68949;53.176;18.088;2023-12-20T03:23:00;6.92;92.39
79489;SHT31;68949;53.176;18.088;2023-12-20T03:25:27;6.91;92.33
79489;SHT31;68949;53.176;18.088;2023-12-20T03:27:55;6.90;92.37
79489;SHT31;68949;53.176;18.088;2023-12-20T03:30:22;6.92;92.36
79489;SHT31;68949;53.176;18.088;2023-12-20T03:32:49;6.91;92.30
79489;SHT31;68949;53.176;18.088;2023-12-20T03:35:19;6.91;92.30
79489;SHT31;68949;53.176;18.088;2023-12-20T03:37:46;6.91;92.30
79489;SHT31;68949;53.176;18.088;2023-12-20T03:40:54;6.90;92.31
79489;SHT31;68949;53.176;18.088;2023-12-20T03:43:52;6.90;92.27
79489;SHT31;68949;53.176;18.088;2023-12-20T03:46:27;6.89;92.22
79489;SHT31;68949;53.176;18.088;2023-12-20T03:49:13;6.89;92.24
79489;SHT31;68949;53.176;18.088;2023-12-20T03:52:10;6.90;92.21
79489;SHT31;68949;53.176;18.088;2023-12-20T03:58:20;6.93;92.08
79489;SHT31;68949;53.176;18.088;2023-12-20T04:01:06;6.92;92.08
79489;SHT31;68949;53.176;18.088;2023-12-20T04:03:53;6.91;91.98
79489;SHT31;68949;53.176;18.088;2023-12-20T04:06:59;6.92;92.00
79489;SHT31;68949;53.176;18.088;2023-12-20T04:10:14;6.93;92.02
79489;SHT31;68949;53.176;18.088;2023-12-20T04:13:07;6.93;91.93
79489;SHT31;68949;53.176;18.088;2023-12-20T04:16:09;6.94;91.91
79489;SHT31;68949;53.176;18.088;2023-12-20T04:19:13;6.97;91.86
79489;SHT31;68949;53.176;18.088;2023-12-20T04:22:47;6.93;91.81
79489;SHT31;68949;53.176;18.088;2023-12-20T04:26:20;6.90;91.79
79489;SHT31;68949;53.176;18.088;2023-12-20T04:33:01;6.94;91.82
79489;SHT31;68949;53.176;18.088;2023-12-20T04:38:46;6.96;91.68
79489;SHT31;68949;53.176;18.088;2023-12-20T04:44:27;6.96;91.68
79489;SHT31;68949;53.176;18.088;2023-12-20T04:46:54;6.95;91.60
79489;SHT31;68949;53.176;18.088;2023-12-20T04:49:22;6.96;91.67
79489;SHT31;68949;53.176;18.088;2023-12-20T04:51:52;6.98;91.67
79489;SHT31;68949;53.176;18.088;2023-12-20T04:54:18;6.99;91.62
79489;SHT31;68949;53.176;18.088;2023-12-20T04:56:45;6.96;91.60
79489;SHT31;68949;53.176;18.088;2023-12-20T04:59:12;6.94;91.62
79489;SHT31;68949;53.176;18.088;2023-12-20T05:01:39;6.90;91.58
79489;SHT31;68949;53.176;18.088;2023-12-20T05:04:05;6.87;91.54
79489;SHT31;68949;53.176;18.088;2023-12-20T05:06:32;6.82;91.58
79489;SHT31;68949;53.176;18.088;2023-12-20T05:08:59;6.75;91.66
79489;SHT31;68949;53.176;18.088;2023-12-20T05:11:26;6.72;91.78
79489;SHT31;68949;53.176;18.088;2023-12-20T05:13:52;6.71;91.81
79489;SHT31;68949;53.176;18.088;2023-12-20T05:16:19;6.71;91.78
79489;SHT31;68949;53.176;18.088;2023-12-20T05:18:48;6.67;91.67
79489;SHT31;68949;53.176;18.088;2023-12-20T05:21:16;6.64;91.53
79489;SHT31;68949;53.176;18.088;2023-12-20T05:23:43;6.62;91.50
79489;SHT31;68949;53.176;18.088;2023-12-20T05:26:13;6.58;91.53
79489;SHT31;68949;53.176;18.088;2023-12-20T05:28:40;6.56;91.59
79489;SHT31;68949;53.176;18.088;2023-12-20T05:31:08;6.54;91.50
79489;SHT31;68949;53.176;18.088;2023-12-20T05:33:35;6.49;91.47
79489;SHT31;68949;53.176;18.088;2023-12-20T05:36:03;6.46;91.21
79489;SHT31;68949;53.176;18.088;2023-12-20T05:38:30;6.43;91.24
79489;SHT31;68949;53.176;18.088;2023-12-20T05:41:00;6.39;91.12
79489;SHT31;68949;53.176;18.088;2023-12-20T05:43:26;6.34;91.04
79489;SHT31;68949;53.176;18.088;2023-12-20T05:45:53;6.28;90.89
79489;SHT31;68949;53.176;18.088;2023-12-20T05:48:19;6.24;90.74
79489;SHT31;68949;53.176;18.088;2023-12-20T05:50:46;6.17;90.63
79489;SHT31;68949;53.176;18.088;2023-12-20T05:53:13;6.09;90.55
79489;SHT31;68949;53.176;18.088;2023-12-20T06:10:59;5.73;90.23
79489;SHT31;68949;53.176;18.088;2023-12-20T06:13:27;5.69;90.08
79489;SHT31;68949;53.176;18.088;2023-12-20T06:22:34;5.62;90.32
79489;SHT31;68949;53.176;18.088;2023-12-20T06:25:05;5.62;90.38
79489;SHT31;68949;53.176;18.088;2023-12-20T06:30:50;5.69;90.51
79489;SHT31;68949;53.176;18.088;2023-12-20T06:36:28;5.82;90.32
79489;SHT31;68949;53.176;18.088;2023-12-20T06:38:55;5.82;90.11
79489;SHT31;68949;53.176;18.088;2023-12-20T07:04:23;5.64;89.99
79489;SHT31;68949;53.176;18.088;2023-12-20T07:06:52;5.59;90.00
79489;SHT31;68949;53.176;18.088;2023-12-20T07:09:23;5.57;90.09
79489;SHT31;68949;53.176;18.088;2023-12-20T07:11:49;5.56;89.97
79489;SHT31;68949;53.176;18.088;2023-12-20T07:14:16;5.56;90.02
79489;SHT31;68949;53.176;18.088;2023-12-20T07:16:44;5.58;89.99
79489;SHT31;68949;53.176;18.088;2023-12-20T07:19:11;5.57;89.88
79489;SHT31;68949;53.176;18.088;2023-12-20T07:21:38;5.57;89.86
79489;SHT31;68949;53.176;18.088;2023-12-20T07:24:05;5.54;89.64
79489;SHT31;68949;53.176;18.088;2023-12-20T07:26:32;5.50;89.69
79489;SHT31;68949;53.176;18.088;2023-12-20T07:28:58;5.47;89.63
79489;SHT31;68949;53.176;18.088;2023-12-20T07:31:26;5.48;89.68
79489;SHT31;68949;53.176;18.088;2023-12-20T07:33:53;5.44;89.49
79489;SHT31;68949;53.176;18.088;2023-12-20T07:36:23;5.41;89.58
79489;SHT31;68949;53.176;18.088;2023-12-20T07:38:50;5.37;89.52
79489;SHT31;68949;53.176;18.088;2023-12-20T07:41:17;5.26;89.42
79489;SHT31;68949;53.176;18.088;2023-12-20T07:43:45;5.16;89.60
79489;SHT31;68949;53.176;18.088;2023-12-20T07:46:15;5.08;89.91
79489;SHT31;68949;53.176;18.088;2023-12-20T07:48:43;5.05;90.11
79489;SHT31;68949;53.176;18.088;2023-12-20T07:51:13;5.03;90.32
79489;SHT31;68949;53.176;18.088;2023-12-20T07:53:40;5.01;90.41
79489;SHT31;68949;53.176;18.088;2023-12-20T07:56:16;4.95;90.60
79489;SHT31;68949;53.176;18.088;2023-12-20T07:58:46;4.93;90.83
79489;SHT31;68949;53.176;18.088;2023-12-20T08:01:15;4.89;91.00
79489;SHT31;68949;53.176;18.088;2023-12-20T08:03:44;4.89;91.09
79489;SHT31;68949;53.176;18.088;2023-12-20T08:06:11;4.88;91.03
79489;SHT31;68949;53.176;18.088;2023-12-20T08:11:54;4.91;90.94
79489;SHT31;68949;53.176;18.088;2023-12-20T08:14:24;4.92;90.92
79489;SHT31;68949;53.176;18.088;2023-12-20T08:16:52;4.93;90.81
79489;SHT31;68949;53.176;18.088;2023-12-20T08:19:22;4.92;90.76
79489;SHT31;68949;53.176;18.088;2023-12-20T08:21:52;4.95;90.71
79489;SHT31;68949;53.176;18.088;2023-12-20T08:34:10;5.08;90.39
79489;SHT31;68949;53.176;18.088;2023-12-20T08:39:55;5.19;90.38
79489;SHT31;68949;53.176;18.088;2023-12-20T08:52:25;5.10;90.57
79489;SHT31;68949;53.176;18.088;2023-12-20T08:55:12;5.10;90.67
79489;SHT31;68949;53.176;18.088;2023-12-20T08:57:44;5.09;90.74
79489;SHT31;68949;53.176;18.088;2023-12-20T09:00:11;5.12;90.80
79489;SHT31;68949;53.176;18.088;2023-12-20T09:02:40;5.13;90.73
79489;SHT31;68949;53.176;18.088;2023-12-20T09:08:29;5.15;90.69
79489;SHT31;68949;53.176;18.088;2023-12-20T09:14:12;5.30;90.44
79489;SHT31;68949;53.176;18.088;2023-12-20T09:16:39;5.31;90.35
79489;SHT31;68949;53.176;18.088;2023-12-20T09:19:07;5.36;90.45
79489;SHT31;68949;53.176;18.088;2023-12-20T09:21:38;5.40;90.48
79489;SHT31;68949;53.176;18.088;2023-12-20T09:24:05;5.46;90.46
79489;SHT31;68949;53.176;18.088;2023-12-20T09:26:35;5.47;90.44
79489;SHT31;68949;53.176;18.088;2023-12-20T09:29:03;5.45;90.31
79489;SHT31;68949;53.176;18.088;2023-12-20T09:31:31;5.43;90.23
79489;SHT31;68949;53.176;18.088;2023-12-20T09:33:58;5.44;90.31
79489;SHT31;68949;53.176;18.088;2023-12-20T09:36:26;5.52;90.26
79489;SHT31;68949;53.176;18.088;2023-12-20T09:38:53;5.57;90.15
79489;SHT31;68949;53.176;18.088;2023-12-20T09:41:20;5.60;90.09
79489;SHT31;68949;53.176;18.088;2023-12-20T09:43:47;5.64;90.06
79489;SHT31;68949;53.176;18.088;2023-12-20T09:46:16;5.65;89.82
79489;SHT31;68949;53.176;18.088;2023-12-20T09:48:50;5.66;89.57
79489;SHT31;68949;53.176;18.088;2023-12-20T09:51:19;5.67;89.38
79489;SHT31;68949;53.176;18.088;2023-12-20T09:53:48;5.69;89.33
79489;SHT31;68949;53.176;18.088;2023-12-20T09:56:23;5.71;89.22
79489;SHT31;68949;53.176;18.088;2023-12-20T09:58:51;5.77;89.22
79489;SHT31;68949;53.176;18.088;2023-12-20T10:01:21;5.82;88.90
79489;SHT31;68949;53.176;18.088;2023-12-20T10:03:52;5.92;88.89
79489;SHT31;68949;53.176;18.088;2023-12-20T10:06:21;6.02;88.66
79489;SHT31;68949;53.176;18.088;2023-12-20T10:08:48;6.09;88.50
79489;SHT31;68949;53.176;18.088;2023-12-20T10:11:15;6.21;88.37
79489;SHT31;68949;53.176;18.088;2023-12-20T10:13:42;6.30;88.12
79489;SHT31;68949;53.176;18.088;2023-12-20T10:16:10;6.38;87.74
79489;SHT31;68949;53.176;18.088;2023-12-20T10:18:37;6.43;87.42
79489;SHT31;68949;53.176;18.088;2023-12-20T10:21:04;6.51;87.18
79489;SHT31;68949;53.176;18.088;2023-12-20T10:23:35;6.53;87.00
79489;SHT31;68949;53.176;18.088;2023-12-20T10:26:03;6.48;86.37
79489;SHT31;68949;53.176;18.088;2023-12-20T10:28:33;6.37;86.42
79489;SHT31;68949;53.176;18.088;2023-12-20T10:31:02;6.28;86.48
79489;SHT31;68949;53.176;18.088;2023-12-20T10:33:30;6.22;86.55
79489;SHT31;68949;53.176;18.088;2023-12-20T10:36:01;6.18;86.88
79489;SHT31;68949;53.176;18.088;2023-12-20T10:38:29;6.12;86.98
79489;SHT31;68949;53.176;18.088;2023-12-20T10:40:57;6.09;87.14
79489;SHT31;68949;53.176;18.088;2023-12-20T10:43:26;6.06;87.04
79489;SHT31;68949;53.176;18.088;2023-12-20T10:45:55;6.03;87.08
79489;SHT31;68949;53.176;18.088;2023-12-20T10:48:23;6.01;87.01
79489;SHT31;68949;53.176;18.088;2023-12-20T10:50:56;6.00;86.97
79489;SHT31;68949;53.176;18.088;2023-12-20T10:53:29;5.99;87.12
79489;SHT31;68949;53.176;18.088;2023-12-20T10:55:56;6.00;87.33
79489;SHT31;68949;53.176;18.088;2023-12-20T10:58:29;5.99;87.17
79489;SHT31;68949;53.176;18.088;2023-12-20T11:01:01;5.94;87.22
79489;SHT31;68949;53.176;18.088;2023-12-20T11:03:34;5.93;87.39
79489;SHT31;68949;53.176;18.088;2023-12-20T11:06:09;5.93;87.32
79489;SHT31;68949;53.176;18.088;2023-12-20T11:14:51;5.91;87.42
79489;SHT31;68949;53.176;18.088;2023-12-20T11:17:23;5.86;87.45
79489;SHT31;68949;53.176;18.088;2023-12-20T11:22:24;5.87;87.69
79489;SHT31;68949;53.176;18.088;2023-12-20T11:24:52;5.86;87.77
79489;SHT31;68949;53.176;18.088;2023-12-20T11:27:20;5.83;87.72
79489;SHT31;68949;53.176;18.088;2023-12-20T11:29:53;5.80;87.70
79489;SHT31;68949;53.176;18.088;2023-12-20T11:34:59;5.79;87.62
79489;SHT31;68949;53.176;18.088;2023-12-20T11:37:45;5.79;87.64
79489;SHT31;68949;53.176;18.088;2023-12-20T11:40:16;5.80;87.60
79489;SHT31;68949;53.176;18.088;2023-12-20T11:42:45;5.82;87.64
79489;SHT31;68949;53.176;18.088;2023-12-20T11:45:19;5.79;87.73
79489;SHT31;68949;53.176;18.088;2023-12-20T11:47:48;5.78;87.82
79489;SHT31;68949;53.176;18.088;2023-12-20T11:50:17;5.79;87.78
79489;SHT31;68949;53.176;18.088;2023-12-20T11:52:45;5.80;87.88
79489;SHT31;68949;53.176;18.088;2023-12-20T11:55:12;5.80;87.91
79489;SHT31;68949;53.176;18.088;2023-12-20T11:57:39;5.81;88.13
79489;SHT31;68949;53.176;18.088;2023-12-20T12:00:06;5.81;88.22
79489;SHT31;68949;53.176;18.088;2023-12-20T12:02:40;5.79;88.32
79489;SHT31;68949;53.176;18.088;2023-12-20T12:05:08;5.78;88.50
79489;SHT31;68949;53.176;18.088;2023-12-20T12:07:35;5.78;88.60
79489;SHT31;68949;53.176;18.088;2023-12-20T12:10:02;5.76;88.68
79489;SHT31;68949;53.176;18.088;2023-12-20T12:12:31;5.74;88.71
79489;SHT31;68949;53.176;18.088;2023-12-20T12:14:59;5.75;88.78
79489;SHT31;68949;53.176;18.088;2023-12-20T12:17:26;5.72;88.62
79489;SHT31;68949;53.176;18.088;2023-12-20T12:20:01;5.70;88.76
79489;SHT31;68949;53.176;18.088;2023-12-20T12:22:30;5.71;88.87
79489;SHT31;68949;53.176;18.088;2023-12-20T12:24:59;5.69;88.90
79489;SHT31;68949;53.176;18.088;2023-12-20T12:27:40;5.66;88.97
79489;SHT31;68949;53.176;18.088;2023-12-20T12:30:08;5.66;89.11
79489;SHT31;68949;53.176;18.088;2023-12-20T12:32:48;5.65;89.04
79489;SHT31;68949;53.176;18.088;2023-12-20T12:35:15;5.65;89.10
79489;SHT31;68949;53.176;18.088;2023-12-20T12:37:43;5.66;89.09
79489;SHT31;68949;53.176;18.088;2023-12-20T12:40:10;5.65;89.20
79489;SHT31;68949;53.176;18.088;2023-12-20T12:42:41;5.65;89.12
79489;SHT31;68949;53.176;18.088;2023-12-20T12:45:10;5.64;89.14
79489;SHT31;68949;53.176;18.088;2023-12-20T12:47:39;5.63;89.21
79489;SHT31;68949;53.176;18.088;2023-12-20T12:50:07;5.62;89.29
79489;SHT31;68949;53.176;18.088;2023-12-20T12:52:35;5.60;89.29
79489;SHT31;68949;53.176;18.088;2023-12-20T12:55:05;5.58;89.40
79489;SHT31;68949;53.176;18.088;2023-12-20T12:57:32;5.56;89.38
79489;SHT31;68949;53.176;18.088;2023-12-20T13:00:00;5.53;89.43
79489;SHT31;68949;53.176;18.088;2023-12-20T13:02:28;5.51;89.46
79489;SHT31;68949;53.176;18.088;2023-12-20T13:04:55;5.49;89.58
79489;SHT31;68949;53.176;18.088;2023-12-20T13:07:22;5.50;89.60
79489;SHT31;68949;53.176;18.088;2023-12-20T13:09:49;5.48;89.58
79489;SHT31;68949;53.176;18.088;2023-12-20T13:12:17;5.47;89.63
79489;SHT31;68949;53.176;18.088;2023-12-20T13:14:45;5.47;89.58
79489;SHT31;68949;53.176;18.088;2023-12-20T13:17:12;5.45;89.62
79489;SHT31;68949;53.176;18.088;2023-12-20T13:19:39;5.44;89.69
79489;SHT31;68949;53.176;18.088;2023-12-20T13:22:06;5.44;89.70
79489;SHT31;68949;53.176;18.088;2023-12-20T13:24:32;5.45;89.66
79489;SHT31;68949;53.176;18.088;2023-12-20T13:26:59;5.44;89.60
79489;SHT31;68949;53.176;18.088;2023-12-20T13:29:27;5.46;89.67
79489;SHT31;68949;53.176;18.088;2023-12-20T13:31:54;5.46;89.62
79489;SHT31;68949;53.176;18.088;2023-12-20T13:34:21;5.45;89.56
79489;SHT31;68949;53.176;18.088;2023-12-20T13:36:48;5.44;89.60
79489;SHT31;68949;53.176;18.088;2023-12-20T13:39:17;5.45;89.51
79489;SHT31;68949;53.176;18.088;2023-12-20T13:41:44;5.46;89.51
79489;SHT31;68949;53.176;18.088;2023-12-20T13:44:11;5.50;89.56
79489;SHT31;68949;53.176;18.088;2023-12-20T13:46:40;5.51;89.47
79489;SHT31;68949;53.176;18.088;2023-12-20T13:49:07;5.52;89.37
79489;SHT31;68949;53.176;18.088;2023-12-20T13:51:36;5.52;89.46
79489;SHT31;68949;53.176;18.088;2023-12-20T13:54:02;5.51;89.35
79489;SHT31;68949;53.176;18.088;2023-12-20T13:56:29;5.52;89.40
79489;SHT31;68949;53.176;18.088;2023-12-20T13:58:56;5.51;89.39
79489;SHT31;68949;53.176;18.088;2023-12-20T14:01:23;5.51;89.32
79489;SHT31;68949;53.176;18.088;2023-12-20T14:03:51;5.50;89.42
79489;SHT31;68949;53.176;18.088;2023-12-20T14:06:18;5.47;89.37
79489;SHT31;68949;53.176;18.088;2023-12-20T14:08:47;5.45;89.38
79489;SHT31;68949;53.176;18.088;2023-12-20T14:11:14;5.46;89.33
79489;SHT31;68949;53.176;18.088;2023-12-20T14:13:41;5.45;89.21
79489;SHT31;68949;53.176;18.088;2023-12-20T14:16:09;5.44;89.11
79489;SHT31;68949;53.176;18.088;2023-12-20T14:18:37;5.44;89.03
79489;SHT31;68949;53.176;18.088;2023-12-20T14:21:04;5.44;89.00
79489;SHT31;68949;53.176;18.088;2023-12-20T14:23:33;5.44;88.95
79489;SHT31;68949;53.176;18.088;2023-12-20T14:26:00;5.47;88.84
79489;SHT31;68949;53.176;18.088;2023-12-20T14:28:28;5.46;88.88
79489;SHT31;68949;53.176;18.088;2023-12-20T14:30:55;5.46;88.89
79489;SHT31;68949;53.176;18.088;2023-12-20T14:33:22;5.47;88.75
79489;SHT31;68949;53.176;18.088;2023-12-20T14:35:49;5.46;88.64
79489;SHT31;68949;53.176;18.088;2023-12-20T14:38:16;5.44;88.63
79489;SHT31;68949;53.176;18.088;2023-12-20T14:40:42;5.45;88.67
79489;SHT31;68949;53.176;18.088;2023-12-20T14:43:09;5.45;88.70
79489;SHT31;68949;53.176;18.088;2023-12-20T14:45:37;5.47;88.64
79489;SHT31;68949;53.176;18.088;2023-12-20T14:48:04;5.47;88.60
79489;SHT31;68949;53.176;18.088;2023-12-20T14:50:33;5.47;88.60
79489;SHT31;68949;53.176;18.088;2023-12-20T14:52:59;5.48;88.54
79489;SHT31;68949;53.176;18.088;2023-12-20T14:55:28;5.47;88.52
79489;SHT31;68949;53.176;18.088;2023-12-20T14:57:56;5.48;88.48
79489;SHT31;68949;53.176;18.088;2023-12-20T15:00:23;5.48;88.40
79489;SHT31;68949;53.176;18.088;2023-12-20T15:02:50;5.48;88.35
79489;SHT31;68949;53.176;18.088;2023-12-20T15:05:19;5.47;88.29
79489;SHT31;68949;53.176;18.088;2023-12-20T15:07:46;5.47;88.22
79489;SHT31;68949;53.176;18.088;2023-12-20T15:10:15;5.49;88.20
79489;SHT31;68949;53.176;18.088;2023-12-20T15:12:45;5.49;88.23
79489;SHT31;68949;53.176;18.088;2023-12-20T15:15:12;5.48;88.17
79489;SHT31;68949;53.176;18.088;2023-12-20T15:17:39;5.50;88.20
79489;SHT31;68949;53.176;18.088;2023-12-20T15:20:06;5.50;88.11
79489;SHT31;68949;53.176;18.088;2023-12-20T15:22:36;5.50;88.13
79489;SHT31;68949;53.176;18.088;2023-12-20T15:25:06;5.49;88.20
79489;SHT31;68949;53.176;18.088;2023-12-20T15:27:35;5.47;88.35
79489;SHT31;68949;53.176;18.088;2023-12-20T15:30:05;5.45;88.38
79489;SHT31;68949;53.176;18.088;2023-12-20T15:32:36;5.42;88.55
79489;SHT31;68949;53.176;18.088;2023-12-20T15:35:06;5.40;88.69
79489;SHT31;68949;53.176;18.088;2023-12-20T15:37:35;5.37;88.74
79489;SHT31;68949;53.176;18.088;2023-12-20T15:40:02;5.34;88.77
79489;SHT31;68949;53.176;18.088;2023-12-20T15:42:31;5.31;88.72
79489;SHT31;68949;53.176;18.088;2023-12-20T15:44:58;5.26;88.83
79489;SHT31;68949;53.176;18.088;2023-12-20T15:47:25;5.23;88.96
79489;SHT31;68949;53.176;18.088;2023-12-20T15:49:52;5.21;89.18
79489;SHT31;68949;53.176;18.088;2023-12-20T15:52:19;5.19;89.38
79489;SHT31;68949;53.176;18.088;2023-12-20T15:54:49;5.19;89.39
79489;SHT31;68949;53.176;18.088;2023-12-20T15:57:20;5.17;89.37
79489;SHT31;68949;53.176;18.088;2023-12-20T15:59:47;5.15;89.47
79489;SHT31;68949;53.176;18.088;2023-12-20T16:02:16;5.14;89.53
79489;SHT31;68949;53.176;18.088;2023-12-20T16:04:43;5.14;89.62
79489;SHT31;68949;53.176;18.088;2023-12-20T16:07:12;5.14;89.64
79489;SHT31;68949;53.176;18.088;2023-12-20T16:09:39;5.16;89.60
79489;SHT31;68949;53.176;18.088;2023-12-20T16:12:05;5.16;89.64
79489;SHT31;68949;53.176;18.088;2023-12-20T16:14:33;5.14;89.53
79489;SHT31;68949;53.176;18.088;2023-12-20T16:17:02;5.16;89.57
79489;SHT31;68949;53.176;18.088;2023-12-20T16:19:29;5.17;89.52
79489;SHT31;68949;53.176;18.088;2023-12-20T16:21:55;5.18;89.59
79489;SHT31;68949;53.176;18.088;2023-12-20T16:24:24;5.18;89.61
79489;SHT31;68949;53.176;18.088;2023-12-20T16:26:50;5.18;89.68
79489;SHT31;68949;53.176;18.088;2023-12-20T16:29:17;5.17;89.73
79489;SHT31;68949;53.176;18.088;2023-12-20T16:31:45;5.16;89.80
79489;SHT31;68949;53.176;18.088;2023-12-20T16:34:15;5.17;89.75
79489;SHT31;68949;53.176;18.088;2023-12-20T16:36:51;5.18;89.62
79489;SHT31;68949;53.176;18.088;2023-12-20T16:39:21;5.18;89.50
79489;SHT31;68949;53.176;18.088;2023-12-20T16:41:48;5.18;89.43
79489;SHT31;68949;53.176;18.088;2023-12-20T16:44:17;5.18;89.42
79489;SHT31;68949;53.176;18.088;2023-12-20T16:46:45;5.20;89.37
79489;SHT31;68949;53.176;18.088;2023-12-20T16:49:12;5.21;89.21
79489;SHT31;68949;53.176;18.088;2023-12-20T16:51:39;5.22;89.13
79489;SHT31;68949;53.176;18.088;2023-12-20T16:54:05;5.23;89.18
79489;SHT31;68949;53.176;18.088;2023-12-20T16:56:32;5.21;89.15
79489;SHT31;68949;53.176;18.088;2023-12-20T16:59:04;5.19;88.83
79489;SHT31;68949;53.176;18.088;2023-12-20T17:01:31;5.21;88.36
79489;SHT31;68949;53.176;18.088;2023-12-20T17:03:59;5.22;87.93
79489;SHT31;68949;53.176;18.088;2023-12-20T17:06:31;5.22;87.91
79489;SHT31;68949;53.176;18.088;2023-12-20T17:09:00;5.19;87.87
79489;SHT31;68949;53.176;18.088;2023-12-20T17:11:27;5.15;87.77
79489;SHT31;68949;53.176;18.088;2023-12-20T17:13:54;5.13;87.97
79489;SHT31;68949;53.176;18.088;2023-12-20T17:16:21;5.10;87.91
79489;SHT31;68949;53.176;18.088;2023-12-20T17:18:47;5.05;87.67
79489;SHT31;68949;53.176;18.088;2023-12-20T17:21:19;4.95;87.01
79489;SHT31;68949;53.176;18.088;2023-12-20T17:23:47;4.89;87.17
79489;SHT31;68949;53.176;18.088;2023-12-20T17:26:15;4.84;87.26
79489;SHT31;68949;53.176;18.088;2023-12-20T17:28:43;4.77;87.24
79489;SHT31;68949;53.176;18.088;2023-12-20T17:31:09;4.71;86.83
79489;SHT31;68949;53.176;18.088;2023-12-20T17:33:36;4.65;86.52